sensor_id;sensor_type;location;lat;lon;timestamp;temperature;humidity
64937;SHT30;51452;47.698;19.050;2023-04-29T00:01:30;12.94;62.18
64937;SHT30;51452;47.698;19.050;2023-04-29T00:03:55;12.95;60.90
64937;SHT30;51452;47.698;19.050;2023-04-29T00:06:21;12.95;61.04
64937;SHT30;51452;47.698;19.050;2023-04-29T00:08:47;12.97;61.64
64937;SHT30;51452;47.698;19.050;2023-04-29T00:11:12;12.98;61.49
64937;SHT30;51452;47.698;19.050;2023-04-29T00:13:38;13.00;61.56
64937;SHT30;51452;47.698;19.050;2023-04-29T00:16:07;12.95;60.83
64937;SHT30;51452;47.698;19.050;2023-04-29T00:18:33;12.90;61.79
64937;SHT30;51452;47.698;19.050;2023-04-29T00:20:58;12.93;61.36
64937;SHT30;51452;47.698;19.050;2023-04-29T00:23:23;12.84;61.09
64937;SHT30;51452;47.698;19.050;2023-04-29T00:25:49;12.91;61.38
64937;SHT30;51452;47.698;19.050;2023-04-29T00:28:16;12.90;61.44
64937;SHT30;51452;47.698;19.050;2023-04-29T00:30:41;12.90;62.65
64937;SHT30;51452;47.698;19.050;2023-04-29T00:33:06;12.91;62.39
64937;SHT30;51452;47.698;19.050;2023-04-29T00:35:32;12.98;61.67
64937;SHT30;51452;47.698;19.050;2023-04-29T00:37:57;12.93;60.77
64937;SHT30;51452;47.698;19.050;2023-04-29T00:40:22;12.94;61.19
64937;SHT30;51452;47.698;19.050;2023-04-29T00:42:48;13.00;61.80
64937;SHT30;51452;47.698;19.050;2023-04-29T00:45:13;12.98;62.74
64937;SHT30;51452;47.698;19.050;2023-04-29T00:47:39;12.97;61.38
64937;SHT30;51452;47.698;19.050;2023-04-29T00:50:05;13.00;58.88
64937;SHT30;51452;47.698;19.050;2023-04-29T00:52:31;12.98;59.31
64937;SHT30;51452;47.698;19.050;2023-04-29T00:54:57;13.04;59.75
64937;SHT30;51452;47.698;19.050;2023-04-29T00:57:24;13.05;59.24
64937;SHT30;51452;47.698;19.050;2023-04-29T00:59:53;13.07;59.47
64937;SHT30;51452;47.698;19.050;2023-04-29T01:02:18;13.12;60.09
64937;SHT30;51452;47.698;19.050;2023-04-29T01:04:43;13.11;60.62
64937;SHT30;51452;47.698;19.050;2023-04-29T01:10:14;13.01;62.95
64937;SHT30;51452;47.698;19.050;2023-04-29T01:12:45;13.05;63.32
64937;SHT30;51452;47.698;19.050;2023-04-29T01:15:34;12.93;63.15
64937;SHT30;51452;47.698;19.050;2023-04-29T01:20:29;12.81;63.63
64937;SHT30;51452;47.698;19.050;2023-04-29T01:22:55;12.74;62.92
64937;SHT30;51452;47.698;19.050;2023-04-29T01:25:20;12.74;64.23
64937;SHT30;51452;47.698;19.050;2023-04-29T01:30:49;12.68;63.97
64937;SHT30;51452;47.698;19.050;2023-04-29T01:35:55;12.57;63.77
64937;SHT30;51452;47.698;19.050;2023-04-29T01:38:46;12.60;64.66
64937;SHT30;51452;47.698;19.050;2023-04-29T01:41:28;12.59;65.78
64937;SHT30;51452;47.698;19.050;2023-04-29T01:43:55;12.61;66.35
64937;SHT30;51452;47.698;19.050;2023-04-29T01:46:21;12.60;67.50
64937;SHT30;51452;47.698;19.050;2023-04-29T01:48:46;12.60;67.13
64937;SHT30;51452;47.698;19.050;2023-04-29T01:51:12;12.50;67.49
64937;SHT30;51452;47.698;19.050;2023-04-29T01:53:37;12.49;68.13
64937;SHT30;51452;47.698;19.050;2023-04-29T01:56:06;12.46;67.14
64937;SHT30;51452;47.698;19.050;2023-04-29T01:58:31;12.50;65.94
64937;SHT30;51452;47.698;19.050;2023-04-29T02:00:57;12.47;65.09
64937;SHT30;51452;47.698;19.050;2023-04-29T02:03:22;12.47;65.40
64937;SHT30;51452;47.698;19.050;2023-04-29T02:05:47;12.49;65.57
64937;SHT30;51452;47.698;19.050;2023-04-29T02:08:15;12.45;65.27
64937;SHT30;51452;47.698;19.050;2023-04-29T02:10:40;12.36;65.48
64937;SHT30;51452;47.698;19.050;2023-04-29T02:13:06;12.33;64.90
64937;SHT30;51452;47.698;19.050;2023-04-29T02:15:31;12.35;64.25
64937;SHT30;51452;47.698;19.050;2023-04-29T02:17:57;12.32;65.64
64937;SHT30;51452;47.698;19.050;2023-04-29T02:20:22;12.30;65.55
64937;SHT30;51452;47.698;19.050;2023-04-29T02:22:47;12.29;66.38
64937;SHT30;51452;47.698;19.050;2023-04-29T02:25:13;12.26;66.16
64937;SHT30;51452;47.698;19.050;2023-04-29T02:27:39;12.26;66.95
64937;SHT30;51452;47.698;19.050;2023-04-29T02:30:05;12.25;66.12
64937;SHT30;51452;47.698;19.050;2023-04-29T02:32:30;12.30;66.97
64937;SHT30;51452;47.698;19.050;2023-04-29T02:34:56;12.29;66.82
64937;SHT30;51452;47.698;19.050;2023-04-29T02:37:22;12.29;66.64
64937;SHT30;51452;47.698;19.050;2023-04-29T02:39:47;12.26;67.20
64937;SHT30;51452;47.698;19.050;2023-04-29T02:42:13;12.21;67.23
64937;SHT30;51452;47.698;19.050;2023-04-29T02:44:38;12.22;66.85
64937;SHT30;51452;47.698;19.050;2023-04-29T02:47:04;12.15;67.44
64937;SHT30;51452;47.698;19.050;2023-04-29T02:49:29;12.09;66.99
64937;SHT30;51452;47.698;19.050;2023-04-29T02:51:55;12.09;67.36
64937;SHT30;51452;47.698;19.050;2023-04-29T02:54:20;12.08;67.45
64937;SHT30;51452;47.698;19.050;2023-04-29T02:56:46;12.04;68.09
64937;SHT30;51452;47.698;19.050;2023-04-29T02:59:11;12.05;66.38
64937;SHT30;51452;47.698;19.050;2023-04-29T03:01:36;12.04;67.81
64937;SHT30;51452;47.698;19.050;2023-04-29T03:04:03;12.06;66.93
64937;SHT30;51452;47.698;19.050;2023-04-29T03:06:28;12.06;65.88
64937;SHT30;51452;47.698;19.050;2023-04-29T03:08:54;12.09;66.07
64937;SHT30;51452;47.698;19.050;2023-04-29T03:11:19;12.11;67.21
64937;SHT30;51452;47.698;19.050;2023-04-29T03:13:45;12.11;67.35
64937;SHT30;51452;47.698;19.050;2023-04-29T03:16:11;12.06;66.94
64937;SHT30;51452;47.698;19.050;2023-04-29T03:18:38;12.05;65.42
64937;SHT30;51452;47.698;19.050;2023-04-29T03:21:03;12.08;65.67
64937;SHT30;51452;47.698;19.050;2023-04-29T03:23:29;12.11;67.24
64937;SHT30;51452;47.698;19.050;2023-04-29T03:25:54;12.09;66.47
64937;SHT30;51452;47.698;19.050;2023-04-29T03:28:20;12.08;66.94
64937;SHT30;51452;47.698;19.050;2023-04-29T03:30:46;12.08;67.28
64937;SHT30;51452;47.698;19.050;2023-04-29T03:33:11;12.05;67.39
64937;SHT30;51452;47.698;19.050;2023-04-29T03:35:36;12.04;67.65
64937;SHT30;51452;47.698;19.050;2023-04-29T03:38:02;12.11;66.82
64937;SHT30;51452;47.698;19.050;2023-04-29T03:40:28;12.16;66.31
64937;SHT30;51452;47.698;19.050;2023-04-29T03:42:53;12.14;66.80
64937;SHT30;51452;47.698;19.050;2023-04-29T03:45:18;12.21;67.23
64937;SHT30;51452;47.698;19.050;2023-04-29T03:47:44;12.28;67.31
64937;SHT30;51452;47.698;19.050;2023-04-29T03:50:10;12.28;67.22
64937;SHT30;51452;47.698;19.050;2023-04-29T03:52:36;12.32;67.16
64937;SHT30;51452;47.698;19.050;2023-04-29T03:55:02;12.33;67.68
64937;SHT30;51452;47.698;19.050;2023-04-29T03:57:27;12.32;68.43
64937;SHT30;51452;47.698;19.050;2023-04-29T03:59:53;12.33;68.52
64937;SHT30;51452;47.698;19.050;2023-04-29T04:02:18;12.35;67.24
64937;SHT30;51452;47.698;19.050;2023-04-29T04:04:44;12.35;65.34
64937;SHT30;51452;47.698;19.050;2023-04-29T04:07:09;12.37;65.15
64937;SHT30;51452;47.698;19.050;2023-04-29T04:09:36;12.35;66.64
64937;SHT30;51452;47.698;19.050;2023-04-29T04:12:01;12.33;67.19
64937;SHT30;51452;47.698;19.050;2023-04-29T04:14:27;12.33;67.88
64937;SHT30;51452;47.698;19.050;2023-04-29T04:16:53;12.25;67.91
64937;SHT30;51452;47.698;19.050;2023-04-29T04:19:18;12.32;68.93
64937;SHT30;51452;47.698;19.050;2023-04-29T04:21:44;12.29;69.33
64937;SHT30;51452;47.698;19.050;2023-04-29T04:24:09;12.30;68.92
64937;SHT30;51452;47.698;19.050;2023-04-29T04:26:35;12.21;67.67
64937;SHT30;51452;47.698;19.050;2023-04-29T04:29:00;12.25;68.00
64937;SHT30;51452;47.698;19.050;2023-04-29T04:31:25;12.19;69.10
64937;SHT30;51452;47.698;19.050;2023-04-29T04:33:51;12.19;68.89
64937;SHT30;51452;47.698;19.050;2023-04-29T04:36:16;12.14;68.08
64937;SHT30;51452;47.698;19.050;2023-04-29T04:38:41;12.05;68.47
64937;SHT30;51452;47.698;19.050;2023-04-29T04:41:07;12.05;68.16
64937;SHT30;51452;47.698;19.050;2023-04-29T04:43:33;12.05;66.45
64937;SHT30;51452;47.698;19.050;2023-04-29T04:45:58;12.11;67.37
64937;SHT30;51452;47.698;19.050;2023-04-29T04:48:24;12.08;66.88
64937;SHT30;51452;47.698;19.050;2023-04-29T04:50:49;12.12;66.88
64937;SHT30;51452;47.698;19.050;2023-04-29T04:53:15;12.09;66.25
64937;SHT30;51452;47.698;19.050;2023-04-29T04:55:41;12.15;67.15
64937;SHT30;51452;47.698;19.050;2023-04-29T04:58:06;12.16;66.35
64937;SHT30;51452;47.698;19.050;2023-04-29T05:00:32;12.21;66.16
64937;SHT30;51452;47.698;19.050;2023-04-29T05:02:57;12.25;64.65
64937;SHT30;51452;47.698;19.050;2023-04-29T05:05:22;12.25;64.80
64937;SHT30;51452;47.698;19.050;2023-04-29T05:07:48;12.25;64.70
64937;SHT30;51452;47.698;19.050;2023-04-29T05:10:13;12.21;65.19
64937;SHT30;51452;47.698;19.050;2023-04-29T05:12:38;12.23;66.11
64937;SHT30;51452;47.698;19.050;2023-04-29T05:15:05;12.25;67.59
64937;SHT30;51452;47.698;19.050;2023-04-29T05:17:30;12.23;66.14
64937;SHT30;51452;47.698;19.050;2023-04-29T05:19:56;12.29;67.23
64937;SHT30;51452;47.698;19.050;2023-04-29T05:22:21;12.37;66.40
64937;SHT30;51452;47.698;19.050;2023-04-29T05:24:46;12.42;65.61
64937;SHT30;51452;47.698;19.050;2023-04-29T05:27:17;12.46;65.28
64937;SHT30;51452;47.698;19.050;2023-04-29T05:29:43;12.54;65.90
64937;SHT30;51452;47.698;19.050;2023-04-29T05:32:08;12.54;66.36
64937;SHT30;51452;47.698;19.050;2023-04-29T05:34:33;12.63;66.98
64937;SHT30;51452;47.698;19.050;2023-04-29T05:36:59;12.67;64.46
64937;SHT30;51452;47.698;19.050;2023-04-29T05:39:24;12.72;63.36
64937;SHT30;51452;47.698;19.050;2023-04-29T05:41:51;12.79;61.95
64937;SHT30;51452;47.698;19.050;2023-04-29T05:44:16;12.87;63.87
64937;SHT30;51452;47.698;19.050;2023-04-29T05:46:41;12.91;63.50
64937;SHT30;51452;47.698;19.050;2023-04-29T05:49:07;12.95;64.91
64937;SHT30;51452;47.698;19.050;2023-04-29T05:51:33;12.98;62.29
64937;SHT30;51452;47.698;19.050;2023-04-29T05:53:58;13.01;63.41
64937;SHT30;51452;47.698;19.050;2023-04-29T05:56:24;13.04;61.94
64937;SHT30;51452;47.698;19.050;2023-04-29T05:58:50;12.98;59.36
64937;SHT30;51452;47.698;19.050;2023-04-29T06:01:15;12.98;58.07
64937;SHT30;51452;47.698;19.050;2023-04-29T06:03:42;13.03;61.82
64937;SHT30;51452;47.698;19.050;2023-04-29T06:06:07;13.04;62.03
64937;SHT30;51452;47.698;19.050;2023-04-29T06:08:33;13.04;59.94
64937;SHT30;51452;47.698;19.050;2023-04-29T06:10:58;13.04;62.11
64937;SHT30;51452;47.698;19.050;2023-04-29T06:13:23;12.95;59.14
64937;SHT30;51452;47.698;19.050;2023-04-29T06:15:50;12.95;62.16
64937;SHT30;51452;47.698;19.050;2023-04-29T06:18:15;12.98;63.16
64937;SHT30;51452;47.698;19.050;2023-04-29T06:20:40;12.90;61.12
64937;SHT30;51452;47.698;19.050;2023-04-29T06:23:06;12.95;57.52
64937;SHT30;51452;47.698;19.050;2023-04-29T06:25:31;12.98;58.75
64937;SHT30;51452;47.698;19.050;2023-04-29T06:27:57;12.91;58.45
64937;SHT30;51452;47.698;19.050;2023-04-29T06:30:22;13.01;61.81
64937;SHT30;51452;47.698;19.050;2023-04-29T06:32:48;13.05;61.63
64937;SHT30;51452;47.698;19.050;2023-04-29T06:35:13;13.03;59.75
64937;SHT30;51452;47.698;19.050;2023-04-29T06:37:39;13.11;60.40
64937;SHT30;51452;47.698;19.050;2023-04-29T06:40:05;13.14;57.47
64937;SHT30;51452;47.698;19.050;2023-04-29T06:42:30;13.08;59.80
64937;SHT30;51452;47.698;19.050;2023-04-29T06:44:56;13.10;60.38
64937;SHT30;51452;47.698;19.050;2023-04-29T06:47:21;13.12;62.54
64937;SHT30;51452;47.698;19.050;2023-04-29T06:49:47;13.10;63.36
64937;SHT30;51452;47.698;19.050;2023-04-29T06:52:13;13.08;61.19
64937;SHT30;51452;47.698;19.050;2023-04-29T06:54:39;13.14;62.01
64937;SHT30;51452;47.698;19.050;2023-04-29T06:57:04;13.12;61.90
64937;SHT30;51452;47.698;19.050;2023-04-29T06:59:29;13.11;61.47
64937;SHT30;51452;47.698;19.050;2023-04-29T07:01:55;13.15;61.46
64937;SHT30;51452;47.698;19.050;2023-04-29T07:04:20;13.16;60.71
64937;SHT30;51452;47.698;19.050;2023-04-29T07:06:46;13.19;58.97
64937;SHT30;51452;47.698;19.050;2023-04-29T07:09:12;13.22;61.86
64937;SHT30;51452;47.698;19.050;2023-04-29T07:11:40;13.24;59.60
64937;SHT30;51452;47.698;19.050;2023-04-29T07:14:06;13.29;59.11
64937;SHT30;51452;47.698;19.050;2023-04-29T07:16:32;13.35;59.39
64937;SHT30;51452;47.698;19.050;2023-04-29T07:18:57;13.39;60.94
64937;SHT30;51452;47.698;19.050;2023-04-29T07:21:23;13.35;55.81
64937;SHT30;51452;47.698;19.050;2023-04-29T07:23:48;13.39;57.45
64937;SHT30;51452;47.698;19.050;2023-04-29T07:26:16;13.45;57.34
64937;SHT30;51452;47.698;19.050;2023-04-29T07:28:41;13.54;59.19
64937;SHT30;51452;47.698;19.050;2023-04-29T07:31:08;13.59;58.06
64937;SHT30;51452;47.698;19.050;2023-04-29T07:33:34;13.67;57.65
64937;SHT30;51452;47.698;19.050;2023-04-29T07:35:59;13.59;58.19
64937;SHT30;51452;47.698;19.050;2023-04-29T07:38:26;13.63;60.29
64937;SHT30;51452;47.698;19.050;2023-04-29T07:40:53;13.75;58.98
64937;SHT30;51452;47.698;19.050;2023-04-29T07:43:18;13.76;57.90
64937;SHT30;51452;47.698;19.050;2023-04-29T07:45:43;13.80;59.97
64937;SHT30;51452;47.698;19.050;2023-04-29T07:48:09;13.86;58.88
64937;SHT30;51452;47.698;19.050;2023-04-29T07:50:34;13.89;58.07
64937;SHT30;51452;47.698;19.050;2023-04-29T07:53:03;14.03;57.38
64937;SHT30;51452;47.698;19.050;2023-04-29T07:55:28;14.06;55.48
64937;SHT30;51452;47.698;19.050;2023-04-29T07:57:55;14.16;57.40
64937;SHT30;51452;47.698;19.050;2023-04-29T08:00:21;14.27;56.60
64937;SHT30;51452;47.698;19.050;2023-04-29T08:02:53;14.21;56.84
64937;SHT30;51452;47.698;19.050;2023-04-29T08:05:19;14.18;54.64
64937;SHT30;51452;47.698;19.050;2023-04-29T08:07:48;14.25;53.19
64937;SHT30;51452;47.698;19.050;2023-04-29T08:10:15;14.25;54.85
64937;SHT30;51452;47.698;19.050;2023-04-29T08:12:40;14.33;55.78
64937;SHT30;51452;47.698;19.050;2023-04-29T08:15:06;14.24;54.60
64937;SHT30;51452;47.698;19.050;2023-04-29T08:17:32;14.23;55.66
64937;SHT30;51452;47.698;19.050;2023-04-29T08:19:57;14.27;54.63
64937;SHT30;51452;47.698;19.050;2023-04-29T08:22:23;14.34;53.14
64937;SHT30;51452;47.698;19.050;2023-04-29T08:24:48;14.34;55.31
64937;SHT30;51452;47.698;19.050;2023-04-29T08:27:14;14.38;53.84
64937;SHT30;51452;47.698;19.050;2023-04-29T08:29:40;14.38;53.17
64937;SHT30;51452;47.698;19.050;2023-04-29T08:32:06;14.37;53.97
64937;SHT30;51452;47.698;19.050;2023-04-29T08:34:32;14.47;54.15
64937;SHT30;51452;47.698;19.050;2023-04-29T08:36:58;14.51;54.91
64937;SHT30;51452;47.698;19.050;2023-04-29T08:39:23;14.51;53.95
64937;SHT30;51452;47.698;19.050;2023-04-29T08:41:50;14.60;54.35
64937;SHT30;51452;47.698;19.050;2023-04-29T08:44:16;14.61;54.08
64937;SHT30;51452;47.698;19.050;2023-04-29T08:46:45;14.63;54.49
64937;SHT30;51452;47.698;19.050;2023-04-29T08:49:10;14.61;56.31
64937;SHT30;51452;47.698;19.050;2023-04-29T08:51:37;14.54;53.29
64937;SHT30;51452;47.698;19.050;2023-04-29T08:54:02;14.47;53.86
64937;SHT30;51452;47.698;19.050;2023-04-29T08:56:29;14.47;53.04
64937;SHT30;51452;47.698;19.050;2023-04-29T08:58:56;14.35;53.22
64937;SHT30;51452;47.698;19.050;2023-04-29T09:01:25;14.28;54.81
64937;SHT30;51452;47.698;19.050;2023-04-29T09:04:03;14.30;53.87
64937;SHT30;51452;47.698;19.050;2023-04-29T09:06:32;14.31;55.42
64937;SHT30;51452;47.698;19.050;2023-04-29T09:08:58;14.33;52.73
64937;SHT30;51452;47.698;19.050;2023-04-29T09:11:26;14.37;54.92
64937;SHT30;51452;47.698;19.050;2023-04-29T09:13:57;14.42;54.95
64937;SHT30;51452;47.698;19.050;2023-04-29T09:16:23;14.57;55.15
64937;SHT30;51452;47.698;19.050;2023-04-29T09:18:50;14.61;53.06
64937;SHT30;51452;47.698;19.050;2023-04-29T09:21:20;14.54;51.26
64937;SHT30;51452;47.698;19.050;2023-04-29T09:23:49;14.64;52.59
64937;SHT30;51452;47.698;19.050;2023-04-29T09:26:15;14.72;54.68
64937;SHT30;51452;47.698;19.050;2023-04-29T09:28:41;14.75;53.36
64937;SHT30;51452;47.698;19.050;2023-04-29T09:31:09;14.88;53.82
64937;SHT30;51452;47.698;19.050;2023-04-29T09:33:53;14.91;53.20
64937;SHT30;51452;47.698;19.050;2023-04-29T09:36:46;14.95;52.61
64937;SHT30;51452;47.698;19.050;2023-04-29T09:39:20;14.96;54.28
64937;SHT30;51452;47.698;19.050;2023-04-29T09:44:26;15.10;53.26
64937;SHT30;51452;47.698;19.050;2023-04-29T09:46:55;15.16;53.75
64937;SHT30;51452;47.698;19.050;2023-04-29T09:49:36;15.25;53.99
64937;SHT30;51452;47.698;19.050;2023-04-29T09:54:33;15.29;54.22
64937;SHT30;51452;47.698;19.050;2023-04-29T09:57:00;15.42;54.11
64937;SHT30;51452;47.698;19.050;2023-04-29T09:59:26;15.49;52.37
64937;SHT30;51452;47.698;19.050;2023-04-29T10:01:54;15.58;52.23
64937;SHT30;51452;47.698;19.050;2023-04-29T10:04:21;15.58;52.30
64937;SHT30;51452;47.698;19.050;2023-04-29T10:06:53;15.57;51.85
64937;SHT30;51452;47.698;19.050;2023-04-29T10:09:19;15.68;51.43
64937;SHT30;51452;47.698;19.050;2023-04-29T10:11:46;15.66;51.07
64937;SHT30;51452;47.698;19.050;2023-04-29T10:14:18;15.74;52.03
64937;SHT30;51452;47.698;19.050;2023-04-29T10:16:47;15.66;51.55
64937;SHT30;51452;47.698;19.050;2023-04-29T10:19:34;15.85;52.45
64937;SHT30;51452;47.698;19.050;2023-04-29T10:22:11;16.05;51.53
64937;SHT30;51452;47.698;19.050;2023-04-29T10:24:38;16.19;50.42
64937;SHT30;51452;47.698;19.050;2023-04-29T10:27:07;16.25;51.30
64937;SHT30;51452;47.698;19.050;2023-04-29T10:29:36;16.30;51.32
64937;SHT30;51452;47.698;19.050;2023-04-29T10:32:03;16.32;51.54
64937;SHT30;51452;47.698;19.050;2023-04-29T10:34:31;16.42;51.13
64937;SHT30;51452;47.698;19.050;2023-04-29T10:36:58;16.45;50.80
64937;SHT30;51452;47.698;19.050;2023-04-29T10:39:38;16.26;50.84
64937;SHT30;51452;47.698;19.050;2023-04-29T10:42:26;16.45;52.14
64937;SHT30;51452;47.698;19.050;2023-04-29T10:53:02;16.56;50.89
64937;SHT30;51452;47.698;19.050;2023-04-29T10:55:29;16.75;50.44
64937;SHT30;51452;47.698;19.050;2023-04-29T10:57:55;16.67;49.81
64937;SHT30;51452;47.698;19.050;2023-04-29T11:02:47;16.77;50.60
64937;SHT30;51452;47.698;19.050;2023-04-29T11:05:13;16.97;48.34
64937;SHT30;51452;47.698;19.050;2023-04-29T11:07:39;16.94;49.05
64937;SHT30;51452;47.698;19.050;2023-04-29T11:10:06;17.08;49.89
64937;SHT30;51452;47.698;19.050;2023-04-29T11:12:31;17.18;50.96
64937;SHT30;51452;47.698;19.050;2023-04-29T11:14:57;17.18;51.39
64937;SHT30;51452;47.698;19.050;2023-04-29T11:17:34;17.15;49.38
64937;SHT30;51452;47.698;19.050;2023-04-29T11:20:13;17.25;48.91
64937;SHT30;51452;47.698;19.050;2023-04-29T11:22:38;17.41;48.29
64937;SHT30;51452;47.698;19.050;2023-04-29T11:25:05;17.45;48.69
64937;SHT30;51452;47.698;19.050;2023-04-29T11:27:38;17.55;49.50
64937;SHT30;51452;47.698;19.050;2023-04-29T11:30:05;17.47;47.36
64937;SHT30;51452;47.698;19.050;2023-04-29T11:32:40;17.48;48.23
64937;SHT30;51452;47.698;19.050;2023-04-29T11:35:10;17.39;48.36
64937;SHT30;51452;47.698;19.050;2023-04-29T11:37:36;17.44;47.02
64937;SHT30;51452;47.698;19.050;2023-04-29T11:40:03;17.38;47.27
64937;SHT30;51452;47.698;19.050;2023-04-29T11:42:29;17.48;48.48
64937;SHT30;51452;47.698;19.050;2023-04-29T11:44:54;17.39;46.67
64937;SHT30;51452;47.698;19.050;2023-04-29T11:47:28;17.17;44.40
64937;SHT30;51452;47.698;19.050;2023-04-29T11:50:07;17.23;46.35
64937;SHT30;51452;47.698;19.050;2023-04-29T11:52:36;17.38;46.56
64937;SHT30;51452;47.698;19.050;2023-04-29T11:55:03;17.48;46.86
64937;SHT30;51452;47.698;19.050;2023-04-29T11:57:28;17.56;45.51
64937;SHT30;51452;47.698;19.050;2023-04-29T11:59:56;17.64;45.12
64937;SHT30;51452;47.698;19.050;2023-04-29T12:02:22;17.66;45.93
64937;SHT30;51452;47.698;19.050;2023-04-29T12:04:48;17.59;44.50
64937;SHT30;51452;47.698;19.050;2023-04-29T12:07:14;17.58;44.63
64937;SHT30;51452;47.698;19.050;2023-04-29T12:09:44;17.65;44.12
64937;SHT30;51452;47.698;19.050;2023-04-29T12:12:11;17.69;43.59
64937;SHT30;51452;47.698;19.050;2023-04-29T12:14:37;17.81;44.92
64937;SHT30;51452;47.698;19.050;2023-04-29T12:17:03;17.90;43.59
64937;SHT30;51452;47.698;19.050;2023-04-29T12:19:29;17.87;45.94
64937;SHT30;51452;47.698;19.050;2023-04-29T12:21:58;17.90;42.44
64937;SHT30;51452;47.698;19.050;2023-04-29T12:24:23;17.99;44.44
64937;SHT30;51452;47.698;19.050;2023-04-29T12:26:49;17.99;43.47
64937;SHT30;51452;47.698;19.050;2023-04-29T12:29:14;18.06;44.11
64937;SHT30;51452;47.698;19.050;2023-04-29T12:31:40;18.13;45.27
64937;SHT30;51452;47.698;19.050;2023-04-29T12:34:06;18.29;44.85
64937;SHT30;51452;47.698;19.050;2023-04-29T12:36:32;18.33;45.65
64937;SHT30;51452;47.698;19.050;2023-04-29T12:38:58;18.44;44.70
64937;SHT30;51452;47.698;19.050;2023-04-29T12:41:40;18.47;45.13
64937;SHT30;51452;47.698;19.050;2023-04-29T12:44:06;18.37;42.13
64937;SHT30;51452;47.698;19.050;2023-04-29T12:46:36;18.26;44.56
64937;SHT30;51452;47.698;19.050;2023-04-29T12:49:03;18.47;42.84
64937;SHT30;51452;47.698;19.050;2023-04-29T12:51:30;18.57;43.50
64937;SHT30;51452;47.698;19.050;2023-04-29T12:53:57;18.61;43.42
64937;SHT30;51452;47.698;19.050;2023-04-29T12:56:23;18.71;42.83
64937;SHT30;51452;47.698;19.050;2023-04-29T12:58:48;18.72;43.11
64937;SHT30;51452;47.698;19.050;2023-04-29T13:01:13;18.63;42.96
64937;SHT30;51452;47.698;19.050;2023-04-29T13:03:40;18.64;43.85
64937;SHT30;51452;47.698;19.050;2023-04-29T13:06:05;18.79;44.85
64937;SHT30;51452;47.698;19.050;2023-04-29T13:08:32;18.89;45.75
64937;SHT30;51452;47.698;19.050;2023-04-29T13:10:58;18.68;44.94
64937;SHT30;51452;47.698;19.050;2023-04-29T13:13:23;18.65;46.00
64937;SHT30;51452;47.698;19.050;2023-04-29T13:15:48;18.69;43.19
64937;SHT30;51452;47.698;19.050;2023-04-29T13:18:14;18.79;46.81
64937;SHT30;51452;47.698;19.050;2023-04-29T13:20:39;18.96;45.75
64937;SHT30;51452;47.698;19.050;2023-04-29T13:23:05;19.04;43.18
64937;SHT30;51452;47.698;19.050;2023-04-29T13:25:30;19.15;44.53
64937;SHT30;51452;47.698;19.050;2023-04-29T13:27:56;19.23;43.87
64937;SHT30;51452;47.698;19.050;2023-04-29T13:30:21;19.36;42.65
64937;SHT30;51452;47.698;19.050;2023-04-29T13:32:46;19.42;42.47
64937;SHT30;51452;47.698;19.050;2023-04-29T13:35:12;19.57;43.30
64937;SHT30;51452;47.698;19.050;2023-04-29T13:37:37;19.60;42.77
64937;SHT30;51452;47.698;19.050;2023-04-29T13:40:04;19.60;43.37
64937;SHT30;51452;47.698;19.050;2023-04-29T13:42:31;19.46;43.03
64937;SHT30;51452;47.698;19.050;2023-04-29T13:44:56;19.27;41.87
64937;SHT30;51452;47.698;19.050;2023-04-29T13:47:22;19.08;44.88
64937;SHT30;51452;47.698;19.050;2023-04-29T13:49:47;19.18;44.15
64937;SHT30;51452;47.698;19.050;2023-04-29T13:52:13;19.14;42.16
64937;SHT30;51452;47.698;19.050;2023-04-29T13:54:38;19.08;43.49
64937;SHT30;51452;47.698;19.050;2023-04-29T13:57:04;19.02;43.51
64937;SHT30;51452;47.698;19.050;2023-04-29T13:59:34;19.08;43.29
64937;SHT30;51452;47.698;19.050;2023-04-29T14:02:01;19.16;44.18
64937;SHT30;51452;47.698;19.050;2023-04-29T14:04:27;19.12;44.47
64937;SHT30;51452;47.698;19.050;2023-04-29T14:06:53;19.15;43.93
64937;SHT30;51452;47.698;19.050;2023-04-29T14:09:19;19.09;44.82
64937;SHT30;51452;47.698;19.050;2023-04-29T14:11:46;18.89;45.06
64937;SHT30;51452;47.698;19.050;2023-04-29T14:14:11;18.83;44.19
64937;SHT30;51452;47.698;19.050;2023-04-29T14:16:36;18.68;44.64
64937;SHT30;51452;47.698;19.050;2023-04-29T14:19:02;18.50;44.25
64937;SHT30;51452;47.698;19.050;2023-04-29T14:21:28;18.56;44.72
64937;SHT30;51452;47.698;19.050;2023-04-29T14:23:54;18.51;46.07
64937;SHT30;51452;47.698;19.050;2023-04-29T14:26:19;18.41;45.49
64937;SHT30;51452;47.698;19.050;2023-04-29T14:28:45;18.30;44.67
64937;SHT30;51452;47.698;19.050;2023-04-29T14:31:10;18.29;47.45
64937;SHT30;51452;47.698;19.050;2023-04-29T14:33:38;18.26;46.58
64937;SHT30;51452;47.698;19.050;2023-04-29T14:36:05;18.27;46.76
64937;SHT30;51452;47.698;19.050;2023-04-29T14:38:31;18.30;46.70
64937;SHT30;51452;47.698;19.050;2023-04-29T14:40:56;18.26;47.65
64937;SHT30;51452;47.698;19.050;2023-04-29T14:43:21;18.09;46.70
64937;SHT30;51452;47.698;19.050;2023-04-29T14:45:47;18.13;48.83
64937;SHT30;51452;47.698;19.050;2023-04-29T14:48:12;18.07;47.86
64937;SHT30;51452;47.698;19.050;2023-04-29T14:50:38;17.96;46.83
64937;SHT30;51452;47.698;19.050;2023-04-29T14:53:03;17.95;47.22
64937;SHT30;51452;47.698;19.050;2023-04-29T14:55:29;17.95;47.56
64937;SHT30;51452;47.698;19.050;2023-04-29T14:57:54;17.92;47.27
64937;SHT30;51452;47.698;19.050;2023-04-29T15:00:20;17.89;48.02
64937;SHT30;51452;47.698;19.050;2023-04-29T15:02:46;17.97;48.47
64937;SHT30;51452;47.698;19.050;2023-04-29T15:05:11;17.93;47.65
64937;SHT30;51452;47.698;19.050;2023-04-29T15:07:37;17.99;48.03
64937;SHT30;51452;47.698;19.050;2023-04-29T15:10:02;17.96;48.04
64937;SHT30;51452;47.698;19.050;2023-04-29T15:12:30;17.92;48.42
64937;SHT30;51452;47.698;19.050;2023-04-29T15:14:55;17.87;47.34
64937;SHT30;51452;47.698;19.050;2023-04-29T15:17:21;17.83;48.41
64937;SHT30;51452;47.698;19.050;2023-04-29T15:19:46;17.79;48.79
64937;SHT30;51452;47.698;19.050;2023-04-29T15:22:12;17.79;47.87
64937;SHT30;51452;47.698;19.050;2023-04-29T15:24:37;17.76;48.80
64937;SHT30;51452;47.698;19.050;2023-04-29T15:27:03;17.82;48.62
64937;SHT30;51452;47.698;19.050;2023-04-29T15:29:28;17.79;48.82
64937;SHT30;51452;47.698;19.050;2023-04-29T15:31:56;17.65;48.95
64937;SHT30;51452;47.698;19.050;2023-04-29T15:34:21;17.58;49.09
64937;SHT30;51452;47.698;19.050;2023-04-29T15:36:47;17.48;49.30
64937;SHT30;51452;47.698;19.050;2023-04-29T15:39:12;17.51;50.10